sensor_id;sensor_type;location;lat;lon;timestamp;P1;durP1;ratioP1;P2;durP2;ratioP2
23250;SDS011;11794;49.730;10.088;2022-07-21T00:01:51;9.20;;;4.05;;
23250;SDS011;11794;49.730;10.088;2022-07-21T00:04:17;8.25;;;3.63;;
23250;SDS011;11794;49.730;10.088;2022-07-21T00:06:44;11.67;;;4.43;;
23250;SDS011;11794;49.730;10.088;2022-07-21T00:09:11;8.70;;;3.90;;
23250;SDS011;11794;49.730;10.088;2022-07-21T00:11:37;9.85;;;4.07;;
23250;SDS011;11794;49.730;10.088;2022-07-21T00:14:03;8.98;;;3.90;;
23250;SDS011;11794;49.730;10.088;2022-07-21T00:16:29;9.77;;;4.28;;
23250;SDS011;11794;49.730;10.088;2022-07-21T00:18:55;9.10;;;4.00;;
23250;SDS011;11794;49.730;10.088;2022-07-21T00:21:21;9.40;;;4.00;;
23250;SDS011;11794;49.730;10.088;2022-07-21T00:23:46;10.13;;;4.53;;
23250;SDS011;11794;49.730;10.088;2022-07-21T00:26:12;9.05;;;4.10;;
23250;SDS011;11794;49.730;10.088;2022-07-21T00:28:37;10.33;;;4.67;;
23250;SDS011;11794;49.730;10.088;2022-07-21T00:31:03;9.77;;;4.03;;
23250;SDS011;11794;49.730;10.088;2022-07-21T00:33:29;10.33;;;4.30;;
23250;SDS011;11794;49.730;10.088;2022-07-21T00:35:54;9.32;;;4.30;;
23250;SDS011;11794;49.730;10.088;2022-07-21T00:38:20;8.73;;;4.80;;
23250;SDS011;11794;49.730;10.088;2022-07-21T00:40:45;10.00;;;4.32;;
23250;SDS011;11794;49.730;10.088;2022-07-21T00:43:11;9.43;;;4.50;;
23250;SDS011;11794;49.730;10.088;2022-07-21T00:45:36;8.43;;;4.03;;
23250;SDS011;11794;49.730;10.088;2022-07-21T00:48:02;10.88;;;4.72;;
23250;SDS011;11794;49.730;10.088;2022-07-21T00:50:28;10.50;;;4.60;;
23250;SDS011;11794;49.730;10.088;2022-07-21T00:52:54;11.27;;;4.65;;
23250;SDS011;11794;49.730;10.088;2022-07-21T00:55:20;11.45;;;5.03;;
23250;SDS011;11794;49.730;10.088;2022-07-21T00:57:47;10.10;;;4.40;;
23250;SDS011;11794;49.730;10.088;2022-07-21T01:00:16;11.03;;;4.30;;
23250;SDS011;11794;49.730;10.088;2022-07-21T01:02:43;10.57;;;4.53;;
23250;SDS011;11794;49.730;10.088;2022-07-21T01:05:10;11.23;;;4.85;;
23250;SDS011;11794;49.730;10.088;2022-07-21T01:07:40;10.98;;;5.10;;
23250;SDS011;11794;49.730;10.088;2022-07-21T01:10:07;11.25;;;4.88;;
23250;SDS011;11794;49.730;10.088;2022-07-21T01:12:34;11.20;;;3.90;;
23250;SDS011;11794;49.730;10.088;2022-07-21T01:15:00;9.70;;;4.50;;
23250;SDS011;11794;49.730;10.088;2022-07-21T01:17:26;10.30;;;5.10;;
23250;SDS011;11794;49.730;10.088;2022-07-21T01:19:51;11.82;;;4.57;;
23250;SDS011;11794;49.730;10.088;2022-07-21T01:22:17;10.67;;;4.73;;
23250;SDS011;11794;49.730;10.088;2022-07-21T01:24:43;10.63;;;4.40;;
23250;SDS011;11794;49.730;10.088;2022-07-21T01:27:08;10.10;;;4.33;;
23250;SDS011;11794;49.730;10.088;2022-07-21T01:29:37;11.27;;;4.93;;
23250;SDS011;11794;49.730;10.088;2022-07-21T01:32:03;10.43;;;4.18;;
23250;SDS011;11794;49.730;10.088;2022-07-21T01:34:29;11.05;;;4.95;;
23250;SDS011;11794;49.730;10.088;2022-07-21T01:36:55;11.63;;;4.63;;
23250;SDS011;11794;49.730;10.088;2022-07-21T01:39:20;10.97;;;4.63;;
23250;SDS011;11794;49.730;10.088;2022-07-21T01:42:04;12.10;;;5.80;;
23250;SDS011;11794;49.730;10.088;2022-07-21T01:44:30;11.10;;;5.28;;
23250;SDS011;11794;49.730;10.088;2022-07-21T01:46:55;11.00;;;5.10;;
23250;SDS011;11794;49.730;10.088;2022-07-21T01:49:21;12.38;;;6.22;;
23250;SDS011;11794;49.730;10.088;2022-07-21T01:51:47;12.90;;;5.60;;
23250;SDS011;11794;49.730;10.088;2022-07-21T01:54:13;14.20;;;6.07;;
23250;SDS011;11794;49.730;10.088;2022-07-21T01:56:39;13.45;;;6.25;;
23250;SDS011;11794;49.730;10.088;2022-07-21T01:59:05;12.73;;;6.40;;
23250;SDS011;11794;49.730;10.088;2022-07-21T02:01:31;12.80;;;6.47;;
23250;SDS011;11794;49.730;10.088;2022-07-21T02:03:58;16.17;;;6.68;;
23250;SDS011;11794;49.730;10.088;2022-07-21T02:06:25;17.13;;;7.68;;
23250;SDS011;11794;49.730;10.088;2022-07-21T02:08:51;15.40;;;7.25;;
23250;SDS011;11794;49.730;10.088;2022-07-21T02:11:17;16.00;;;6.90;;
23250;SDS011;11794;49.730;10.088;2022-07-21T02:13:43;15.15;;;7.05;;
23250;SDS011;11794;49.730;10.088;2022-07-21T02:16:09;17.60;;;7.05;;
23250;SDS011;11794;49.730;10.088;2022-07-21T02:18:35;14.50;;;6.72;;
23250;SDS011;11794;49.730;10.088;2022-07-21T02:21:02;13.45;;;6.82;;
23250;SDS011;11794;49.730;10.088;2022-07-21T02:23:29;14.00;;;6.97;;
23250;SDS011;11794;49.730;10.088;2022-07-21T02:25:55;14.48;;;6.50;;
23250;SDS011;11794;49.730;10.088;2022-07-21T02:28:21;16.80;;;7.03;;
23250;SDS011;11794;49.730;10.088;2022-07-21T02:30:47;13.40;;;7.00;;
23250;SDS011;11794;49.730;10.088;2022-07-21T02:33:14;14.95;;;6.97;;
23250;SDS011;11794;49.730;10.088;2022-07-21T02:35:40;12.43;;;6.32;;
23250;SDS011;11794;49.730;10.088;2022-07-21T02:38:07;15.13;;;6.55;;
23250;SDS011;11794;49.730;10.088;2022-07-21T02:40:33;13.45;;;6.35;;
23250;SDS011;11794;49.730;10.088;2022-07-21T02:42:59;12.57;;;6.78;;
23250;SDS011;11794;49.730;10.088;2022-07-21T02:45:25;12.20;;;6.00;;
23250;SDS011;11794;49.730;10.088;2022-07-21T02:47:52;12.43;;;6.27;;
23250;SDS011;11794;49.730;10.088;2022-07-21T02:50:20;12.32;;;6.20;;
23250;SDS011;11794;49.730;10.088;2022-07-21T02:52:47;15.70;;;7.70;;
23250;SDS011;11794;49.730;10.088;2022-07-21T02:55:13;17.83;;;8.05;;
23250;SDS011;11794;49.730;10.088;2022-07-21T02:57:39;14.52;;;6.75;;
23250;SDS011;11794;49.730;10.088;2022-07-21T03:00:07;13.53;;;6.37;;
23250;SDS011;11794;49.730;10.088;2022-07-21T03:02:34;13.80;;;5.90;;
23250;SDS011;11794;49.730;10.088;2022-07-21T03:05:00;14.77;;;6.40;;
23250;SDS011;11794;49.730;10.088;2022-07-21T03:07:26;12.20;;;6.07;;
23250;SDS011;11794;49.730;10.088;2022-07-21T03:09:51;11.63;;;5.57;;
23250;SDS011;11794;49.730;10.088;2022-07-21T03:12:17;11.63;;;5.60;;
23250;SDS011;11794;49.730;10.088;2022-07-21T03:14:43;11.35;;;5.30;;
23250;SDS011;11794;49.730;10.088;2022-07-21T03:17:08;10.60;;;5.60;;
23250;SDS011;11794;49.730;10.088;2022-07-21T03:19:34;12.82;;;5.50;;
23250;SDS011;11794;49.730;10.088;2022-07-21T03:22:00;12.50;;;5.90;;
23250;SDS011;11794;49.730;10.088;2022-07-21T03:24:25;12.43;;;5.15;;
23250;SDS011;11794;49.730;10.088;2022-07-21T03:26:51;14.57;;;5.40;;
23250;SDS011;11794;49.730;10.088;2022-07-21T03:29:16;13.60;;;6.07;;
23250;SDS011;11794;49.730;10.088;2022-07-21T03:31:42;14.20;;;5.72;;
23250;SDS011;11794;49.730;10.088;2022-07-21T03:34:07;14.57;;;5.50;;
23250;SDS011;11794;49.730;10.088;2022-07-21T03:36:33;13.55;;;6.20;;
23250;SDS011;11794;49.730;10.088;2022-07-21T03:38:59;12.67;;;5.83;;
23250;SDS011;11794;49.730;10.088;2022-07-21T03:41:24;16.27;;;6.83;;
23250;SDS011;11794;49.730;10.088;2022-07-21T03:43:50;12.13;;;6.10;;
23250;SDS011;11794;49.730;10.088;2022-07-21T03:46:15;13.13;;;5.63;;
23250;SDS011;11794;49.730;10.088;2022-07-21T03:48:41;12.82;;;6.90;;
23250;SDS011;11794;49.730;10.088;2022-07-21T03:51:06;15.07;;;6.63;;
23250;SDS011;11794;49.730;10.088;2022-07-21T03:53:32;15.80;;;7.28;;
23250;SDS011;11794;49.730;10.088;2022-07-21T03:55:57;15.53;;;7.27;;
23250;SDS011;11794;49.730;10.088;2022-07-21T03:58:23;15.70;;;7.70;;
23250;SDS011;11794;49.730;10.088;2022-07-21T04:00:48;17.70;;;7.70;;
23250;SDS011;11794;49.730;10.088;2022-07-21T04:03:14;17.97;;;8.10;;
23250;SDS011;11794;49.730;10.088;2022-07-21T04:05:41;14.73;;;8.30;;
23250;SDS011;11794;49.730;10.088;2022-07-21T04:08:07;18.43;;;8.23;;
23250;SDS011;11794;49.730;10.088;2022-07-21T04:10:34;17.55;;;7.65;;
23250;SDS011;11794;49.730;10.088;2022-07-21T04:13:04;18.05;;;9.23;;
23250;SDS011;11794;49.730;10.088;2022-07-21T04:15:31;19.27;;;9.20;;
23250;SDS011;11794;49.730;10.088;2022-07-21T04:17:57;20.52;;;9.63;;
23250;SDS011;11794;49.730;10.088;2022-07-21T04:20:23;19.20;;;9.80;;
23250;SDS011;11794;49.730;10.088;2022-07-21T04:22:48;17.70;;;8.40;;
23250;SDS011;11794;49.730;10.088;2022-07-21T04:25:16;19.58;;;8.98;;
23250;SDS011;11794;49.730;10.088;2022-07-21T04:27:42;17.15;;;9.05;;
23250;SDS011;11794;49.730;10.088;2022-07-21T04:30:10;21.77;;;9.52;;
23250;SDS011;11794;49.730;10.088;2022-07-21T04:32:37;18.83;;;9.15;;
23250;SDS011;11794;49.730;10.088;2022-07-21T04:35:07;20.50;;;9.13;;
23250;SDS011;11794;49.730;10.088;2022-07-21T04:37:33;19.63;;;8.90;;
23250;SDS011;11794;49.730;10.088;2022-07-21T04:39:59;15.93;;;8.98;;
23250;SDS011;11794;49.730;10.088;2022-07-21T04:42:26;21.33;;;9.90;;
23250;SDS011;11794;49.730;10.088;2022-07-21T04:44:52;18.92;;;9.23;;
23250;SDS011;11794;49.730;10.088;2022-07-21T04:47:17;19.73;;;9.40;;
23250;SDS011;11794;49.730;10.088;2022-07-21T04:49:43;19.83;;;9.35;;
23250;SDS011;11794;49.730;10.088;2022-07-21T04:52:09;18.97;;;8.70;;
23250;SDS011;11794;49.730;10.088;2022-07-21T04:54:34;24.87;;;9.73;;
23250;SDS011;11794;49.730;10.088;2022-07-21T04:57:00;22.55;;;10.10;;
23250;SDS011;11794;49.730;10.088;2022-07-21T04:59:27;19.63;;;9.20;;
23250;SDS011;11794;49.730;10.088;2022-07-21T05:01:54;20.98;;;8.93;;
23250;SDS011;11794;49.730;10.088;2022-07-21T05:04:20;19.27;;;9.07;;
23250;SDS011;11794;49.730;10.088;2022-07-21T05:06:45;20.15;;;9.57;;
23250;SDS011;11794;49.730;10.088;2022-07-21T05:09:11;18.13;;;9.37;;
23250;SDS011;11794;49.730;10.088;2022-07-21T05:11:36;20.40;;;9.83;;
23250;SDS011;11794;49.730;10.088;2022-07-21T05:14:02;19.10;;;9.53;;
23250;SDS011;11794;49.730;10.088;2022-07-21T05:16:28;22.98;;;10.10;;
23250;SDS011;11794;49.730;10.088;2022-07-21T05:18:54;20.33;;;11.00;;
23250;SDS011;11794;49.730;10.088;2022-07-21T05:21:19;19.42;;;9.82;;
23250;SDS011;11794;49.730;10.088;2022-07-21T05:23:45;19.77;;;9.60;;
23250;SDS011;11794;49.730;10.088;2022-07-21T05:26:10;20.37;;;9.87;;
23250;SDS011;11794;49.730;10.088;2022-07-21T05:28:37;20.63;;;9.93;;
23250;SDS011;11794;49.730;10.088;2022-07-21T05:31:03;18.25;;;9.43;;
23250;SDS011;11794;49.730;10.088;2022-07-21T05:33:28;17.43;;;8.77;;
23250;SDS011;11794;49.730;10.088;2022-07-21T05:35:54;17.02;;;9.52;;
23250;SDS011;11794;49.730;10.088;2022-07-21T05:38:20;19.30;;;9.37;;
23250;SDS011;11794;49.730;10.088;2022-07-21T05:40:45;17.75;;;8.82;;
23250;SDS011;11794;49.730;10.088;2022-07-21T05:43:11;18.33;;;8.80;;
23250;SDS011;11794;49.730;10.088;2022-07-21T05:45:36;19.20;;;10.07;;
23250;SDS011;11794;49.730;10.088;2022-07-21T05:48:02;18.08;;;9.02;;
23250;SDS011;11794;49.730;10.088;2022-07-21T05:50:27;22.07;;;9.93;;
23250;SDS011;11794;49.730;10.088;2022-07-21T05:52:53;19.00;;;9.02;;
23250;SDS011;11794;49.730;10.088;2022-07-21T05:55:18;19.37;;;9.67;;
23250;SDS011;11794;49.730;10.088;2022-07-21T05:57:44;18.57;;;8.97;;
23250;SDS011;11794;49.730;10.088;2022-07-21T06:00:09;19.80;;;9.50;;
23250;SDS011;11794;49.730;10.088;2022-07-21T06:02:35;17.50;;;8.57;;
23250;SDS011;11794;49.730;10.088;2022-07-21T06:05:01;17.17;;;8.18;;
23250;SDS011;11794;49.730;10.088;2022-07-21T06:07:27;16.65;;;8.50;;
23250;SDS011;11794;49.730;10.088;2022-07-21T06:09:52;14.83;;;8.03;;
23250;SDS011;11794;49.730;10.088;2022-07-21T06:12:18;20.20;;;8.50;;
23250;SDS011;11794;49.730;10.088;2022-07-21T06:14:44;14.87;;;7.60;;
23250;SDS011;11794;49.730;10.088;2022-07-21T06:17:09;14.30;;;7.70;;
23250;SDS011;11794;49.730;10.088;2022-07-21T06:19:35;16.08;;;7.55;;
23250;SDS011;11794;49.730;10.088;2022-07-21T06:22:00;15.70;;;6.40;;
23250;SDS011;11794;49.730;10.088;2022-07-21T06:24:27;16.13;;;7.68;;
23250;SDS011;11794;49.730;10.088;2022-07-21T06:26:53;13.95;;;6.70;;
23250;SDS011;11794;49.730;10.088;2022-07-21T06:29:22;15.02;;;7.05;;
23250;SDS011;11794;49.730;10.088;2022-07-21T06:31:48;13.95;;;7.22;;
23250;SDS011;11794;49.730;10.088;2022-07-21T06:34:14;13.50;;;6.57;;
23250;SDS011;11794;49.730;10.088;2022-07-21T06:36:39;13.80;;;6.22;;
23250;SDS011;11794;49.730;10.088;2022-07-21T06:39:05;13.20;;;6.37;;
23250;SDS011;11794;49.730;10.088;2022-07-21T06:41:30;13.70;;;6.33;;
23250;SDS011;11794;49.730;10.088;2022-07-21T06:43:56;13.47;;;6.60;;
23250;SDS011;11794;49.730;10.088;2022-07-21T06:46:22;14.13;;;5.83;;
23250;SDS011;11794;49.730;10.088;2022-07-21T06:48:47;13.07;;;5.80;;
23250;SDS011;11794;49.730;10.088;2022-07-21T06:51:13;13.63;;;6.33;;
23250;SDS011;11794;49.730;10.088;2022-07-21T06:53:39;12.82;;;5.80;;
23250;SDS011;11794;49.730;10.088;2022-07-21T06:56:07;11.05;;;5.63;;
23250;SDS011;11794;49.730;10.088;2022-07-21T06:58:33;10.90;;;5.03;;
23250;SDS011;11794;49.730;10.088;2022-07-21T07:01:00;10.00;;;4.95;;
23250;SDS011;11794;49.730;10.088;2022-07-21T07:03:25;10.40;;;4.50;;
23250;SDS011;11794;49.730;10.088;2022-07-21T07:05:51;11.80;;;5.25;;
23250;SDS011;11794;49.730;10.088;2022-07-21T07:08:17;10.27;;;4.80;;
23250;SDS011;11794;49.730;10.088;2022-07-21T07:10:43;10.47;;;4.40;;
23250;SDS011;11794;49.730;10.088;2022-07-21T07:13:11;9.10;;;4.20;;
23250;SDS011;11794;49.730;10.088;2022-07-21T07:15:38;9.18;;;4.63;;
23250;SDS011;11794;49.730;10.088;2022-07-21T07:18:04;10.55;;;4.35;;
23250;SDS011;11794;49.730;10.088;2022-07-21T07:20:29;9.07;;;4.03;;
23250;SDS011;11794;49.730;10.088;2022-07-21T07:22:55;9.70;;;4.50;;
23250;SDS011;11794;49.730;10.088;2022-07-21T07:25:20;10.17;;;4.70;;
23250;SDS011;11794;49.730;10.088;2022-07-21T07:27:47;11.40;;;3.83;;
23250;SDS011;11794;49.730;10.088;2022-07-21T07:30:14;8.67;;;4.10;;
23250;SDS011;11794;49.730;10.088;2022-07-21T07:32:40;8.90;;;3.97;;
23250;SDS011;11794;49.730;10.088;2022-07-21T07:35:08;8.00;;;3.83;;
23250;SDS011;11794;49.730;10.088;2022-07-21T07:37:35;10.23;;;3.50;;
23250;SDS011;11794;49.730;10.088;2022-07-21T07:40:05;7.40;;;3.72;;
23250;SDS011;11794;49.730;10.088;2022-07-21T07:42:33;8.43;;;3.95;;
23250;SDS011;11794;49.730;10.088;2022-07-21T07:44:59;7.60;;;3.70;;
23250;SDS011;11794;49.730;10.088;2022-07-21T07:47:25;9.83;;;3.70;;
23250;SDS011;11794;49.730;10.088;2022-07-21T07:49:50;9.95;;;4.05;;
23250;SDS011;11794;49.730;10.088;2022-07-21T07:52:18;11.85;;;4.53;;
23250;SDS011;11794;49.730;10.088;2022-07-21T07:54:45;8.57;;;3.33;;
23250;SDS011;11794;49.730;10.088;2022-07-21T07:57:10;7.63;;;4.00;;
23250;SDS011;11794;49.730;10.088;2022-07-21T07:59:36;8.93;;;4.13;;
23250;SDS011;11794;49.730;10.088;2022-07-21T08:02:02;8.50;;;3.95;;
23250;SDS011;11794;49.730;10.088;2022-07-21T08:04:27;8.67;;;4.10;;
23250;SDS011;11794;49.730;10.088;2022-07-21T08:06:53;9.90;;;4.30;;
23250;SDS011;11794;49.730;10.088;2022-07-21T08:09:18;10.50;;;4.40;;
23250;SDS011;11794;49.730;10.088;2022-07-21T08:11:44;9.57;;;4.10;;
23250;SDS011;11794;49.730;10.088;2022-07-21T08:14:12;7.93;;;4.20;;
23250;SDS011;11794;49.730;10.088;2022-07-21T08:16:38;8.40;;;4.05;;
23250;SDS011;11794;49.730;10.088;2022-07-21T08:19:04;7.75;;;4.30;;
23250;SDS011;11794;49.730;10.088;2022-07-21T08:21:29;8.47;;;4.30;;
23250;SDS011;11794;49.730;10.088;2022-07-21T08:23:56;8.63;;;4.35;;
23250;SDS011;11794;49.730;10.088;2022-07-21T08:26:22;10.98;;;4.50;;
23250;SDS011;11794;49.730;10.088;2022-07-21T08:28:49;8.50;;;3.95;;
23250;SDS011;11794;49.730;10.088;2022-07-21T08:31:14;10.97;;;4.50;;
23250;SDS011;11794;49.730;10.088;2022-07-21T08:33:40;8.50;;;4.15;;
23250;SDS011;11794;49.730;10.088;2022-07-21T08:36:05;7.40;;;3.40;;
23250;SDS011;11794;49.730;10.088;2022-07-21T08:38:31;7.13;;;3.03;;
23250;SDS011;11794;49.730;10.088;2022-07-21T08:40:57;7.78;;;3.75;;
23250;SDS011;11794;49.730;10.088;2022-07-21T08:43:23;7.75;;;4.00;;
23250;SDS011;11794;49.730;10.088;2022-07-21T08:45:49;8.67;;;4.00;;
23250;SDS011;11794;49.730;10.088;2022-07-21T08:48:15;9.20;;;4.23;;
23250;SDS011;11794;49.730;10.088;2022-07-21T08:50:44;9.05;;;3.95;;
23250;SDS011;11794;49.730;10.088;2022-07-21T08:53:10;9.45;;;4.38;;
23250;SDS011;11794;49.730;10.088;2022-07-21T08:55:36;7.43;;;3.83;;
23250;SDS011;11794;49.730;10.088;2022-07-21T08:58:06;8.33;;;4.50;;
23250;SDS011;11794;49.730;10.088;2022-07-21T09:00:36;8.90;;;4.03;;
23250;SDS011;11794;49.730;10.088;2022-07-21T09:03:23;8.02;;;3.88;;
23250;SDS011;11794;49.730;10.088;2022-07-21T09:06:00;10.65;;;3.70;;
23250;SDS011;11794;49.730;10.088;2022-07-21T09:08:38;8.27;;;3.70;;
23250;SDS011;11794;49.730;10.088;2022-07-21T09:13:40;8.73;;;4.20;;
23250;SDS011;11794;49.730;10.088;2022-07-21T09:16:07;8.48;;;3.75;;
23250;SDS011;11794;49.730;10.088;2022-07-21T09:18:34;7.45;;;3.70;;
23250;SDS011;11794;49.730;10.088;2022-07-21T09:21:10;7.72;;;3.17;;
23250;SDS011;11794;49.730;10.088;2022-07-21T09:23:36;8.20;;;3.43;;
23250;SDS011;11794;49.730;10.088;2022-07-21T09:26:01;7.63;;;2.93;;
23250;SDS011;11794;49.730;10.088;2022-07-21T09:28:29;6.68;;;3.40;;
23250;SDS011;11794;49.730;10.088;2022-07-21T09:30:58;7.35;;;3.35;;
23250;SDS011;11794;49.730;10.088;2022-07-21T09:33:29;7.07;;;3.30;;
23250;SDS011;11794;49.730;10.088;2022-07-21T09:36:04;8.93;;;3.17;;
23250;SDS011;11794;49.730;10.088;2022-07-21T09:38:35;7.32;;;3.42;;
23250;SDS011;11794;49.730;10.088;2022-07-21T09:41:22;6.65;;;3.55;;
23250;SDS011;11794;49.730;10.088;2022-07-21T09:43:49;6.50;;;3.33;;
23250;SDS011;11794;49.730;10.088;2022-07-21T09:46:20;9.37;;;3.40;;
23250;SDS011;11794;49.730;10.088;2022-07-21T09:48:55;8.33;;;3.50;;
23250;SDS011;11794;49.730;10.088;2022-07-21T09:51:33;6.22;;;3.00;;
23250;SDS011;11794;49.730;10.088;2022-07-21T09:56:29;5.85;;;2.72;;
23250;SDS011;11794;49.730;10.088;2022-07-21T09:59:00;6.97;;;2.43;;
23250;SDS011;11794;49.730;10.088;2022-07-21T10:01:26;6.47;;;2.70;;
23250;SDS011;11794;49.730;10.088;2022-07-21T10:03:54;7.85;;;2.90;;
23250;SDS011;11794;49.730;10.088;2022-07-21T10:06:36;9.32;;;3.10;;
23250;SDS011;11794;49.730;10.088;2022-07-21T10:09:04;6.65;;;3.20;;
23250;SDS011;11794;49.730;10.088;2022-07-21T10:11:33;5.45;;;2.65;;
23250;SDS011;11794;49.730;10.088;2022-07-21T10:13:59;6.40;;;2.80;;
23250;SDS011;11794;49.730;10.088;2022-07-21T10:16:26;6.53;;;3.03;;
23250;SDS011;11794;49.730;10.088;2022-07-21T10:18:54;8.45;;;3.25;;
23250;SDS011;11794;49.730;10.088;2022-07-21T10:21:32;6.60;;;2.90;;
23250;SDS011;11794;49.730;10.088;2022-07-21T10:24:18;6.00;;;2.58;;
23250;SDS011;11794;49.730;10.088;2022-07-21T10:27:00;6.07;;;3.00;;
23250;SDS011;11794;49.730;10.088;2022-07-21T10:32:21;6.50;;;3.15;;
23250;SDS011;11794;49.730;10.088;2022-07-21T10:34:50;5.75;;;2.85;;
23250;SDS011;11794;49.730;10.088;2022-07-21T10:40:51;6.65;;;3.15;;
23250;SDS011;11794;49.730;10.088;2022-07-21T10:47:55;6.72;;;2.50;;
23250;SDS011;11794;49.730;10.088;2022-07-21T10:52:57;6.60;;;2.83;;
23250;SDS011;11794;49.730;10.088;2022-07-21T10:55:26;7.22;;;2.90;;
23250;SDS011;11794;49.730;10.088;2022-07-21T10:58:09;6.13;;;2.95;;
23250;SDS011;11794;49.730;10.088;2022-07-21T11:00:55;5.80;;;3.08;;
23250;SDS011;11794;49.730;10.088;2022-07-21T11:03:32;6.67;;;3.17;;
23250;SDS011;11794;49.730;10.088;2022-07-21T11:08:40;5.07;;;2.50;;
23250;SDS011;11794;49.730;10.088;2022-07-21T11:13:58;6.45;;;3.10;;
23250;SDS011;11794;49.730;10.088;2022-07-21T11:19:41;5.18;;;2.47;;
23250;SDS011;11794;49.730;10.088;2022-07-21T11:24:39;5.47;;;2.33;;
23250;SDS011;11794;49.730;10.088;2022-07-21T11:27:08;4.95;;;2.30;;
23250;SDS011;11794;49.730;10.088;2022-07-21T11:29:36;5.47;;;2.50;;
23250;SDS011;11794;49.730;10.088;2022-07-21T11:32:04;5.17;;;2.50;;
23250;SDS011;11794;49.730;10.088;2022-07-21T11:35:04;6.10;;;3.10;;
23250;SDS011;11794;49.730;10.088;2022-07-21T11:39:56;5.63;;;2.70;;
23250;SDS011;11794;49.730;10.088;2022-07-21T11:42:22;5.40;;;2.67;;
23250;SDS011;11794;49.730;10.088;2022-07-21T11:44:49;6.07;;;2.80;;
23250;SDS011;11794;49.730;10.088;2022-07-21T11:47:15;5.93;;;3.27;;
23250;SDS011;11794;49.730;10.088;2022-07-21T11:49:41;6.75;;;2.92;;
23250;SDS011;11794;49.730;10.088;2022-07-21T11:52:15;5.55;;;2.60;;
23250;SDS011;11794;49.730;10.088;2022-07-21T11:54:49;5.75;;;3.05;;
23250;SDS011;11794;49.730;10.088;2022-07-21T11:57:18;5.53;;;2.67;;
23250;SDS011;11794;49.730;10.088;2022-07-21T11:59:45;4.80;;;2.83;;
23250;SDS011;11794;49.730;10.088;2022-07-21T12:02:13;5.03;;;2.40;;
23250;SDS011;11794;49.730;10.088;2022-07-21T12:09:42;5.85;;;2.80;;
23250;SDS011;11794;49.730;10.088;2022-07-21T12:12:09;6.20;;;2.97;;
23250;SDS011;11794;49.730;10.088;2022-07-21T12:14:42;6.15;;;2.60;;
23250;SDS011;11794;49.730;10.088;2022-07-21T12:17:12;6.13;;;2.92;;
23250;SDS011;11794;49.730;10.088;2022-07-21T12:19:38;5.78;;;3.08;;
23250;SDS011;11794;49.730;10.088;2022-07-21T12:22:04;7.20;;;2.63;;
23250;SDS011;11794;49.730;10.088;2022-07-21T12:27:16;5.60;;;2.80;;
23250;SDS011;11794;49.730;10.088;2022-07-21T12:29:43;5.67;;;2.70;;
23250;SDS011;11794;49.730;10.088;2022-07-21T12:32:09;6.03;;;2.42;;
23250;SDS011;11794;49.730;10.088;2022-07-21T12:34:47;4.95;;;2.50;;
23250;SDS011;11794;49.730;10.088;2022-07-21T12:37:17;5.22;;;2.40;;
23250;SDS011;11794;49.730;10.088;2022-07-21T12:39:43;6.70;;;2.67;;
23250;SDS011;11794;49.730;10.088;2022-07-21T12:42:29;5.10;;;2.17;;
23250;SDS011;11794;49.730;10.088;2022-07-21T12:44:59;5.07;;;2.37;;
23250;SDS011;11794;49.730;10.088;2022-07-21T12:47:25;4.55;;;2.10;;
23250;SDS011;11794;49.730;10.088;2022-07-21T12:49:59;5.07;;;2.30;;
23250;SDS011;11794;49.730;10.088;2022-07-21T12:52:26;4.72;;;2.33;;
23250;SDS011;11794;49.730;10.088;2022-07-21T12:54:52;6.07;;;2.28;;
23250;SDS011;11794;49.730;10.088;2022-07-21T12:57:18;4.80;;;2.27;;
23250;SDS011;11794;49.730;10.088;2022-07-21T12:59:44;4.97;;;2.25;;
23250;SDS011;11794;49.730;10.088;2022-07-21T13:02:09;6.20;;;2.37;;
23250;SDS011;11794;49.730;10.088;2022-07-21T13:04:35;5.85;;;2.40;;
23250;SDS011;11794;49.730;10.088;2022-07-21T13:07:00;7.07;;;2.80;;
23250;SDS011;11794;49.730;10.088;2022-07-21T13:09:26;7.65;;;2.70;;
23250;SDS011;11794;49.730;10.088;2022-07-21T13:11:52;5.87;;;2.90;;
23250;SDS011;11794;49.730;10.088;2022-07-21T13:14:18;6.38;;;2.65;;
23250;SDS011;11794;49.730;10.088;2022-07-21T13:16:43;5.95;;;3.00;;
23250;SDS011;11794;49.730;10.088;2022-07-21T13:19:09;5.53;;;2.67;;
23250;SDS011;11794;49.730;10.088;2022-07-21T13:21:35;5.88;;;2.60;;
23250;SDS011;11794;49.730;10.088;2022-07-21T13:24:01;5.63;;;2.60;;
23250;SDS011;11794;49.730;10.088;2022-07-21T13:26:26;5.68;;;2.65;;
23250;SDS011;11794;49.730;10.088;2022-07-21T13:28:53;5.32;;;2.60;;
23250;SDS011;11794;49.730;10.088;2022-07-21T13:31:19;6.97;;;2.67;;
23250;SDS011;11794;49.730;10.088;2022-07-21T13:33:46;5.10;;;2.67;;
23250;SDS011;11794;49.730;10.088;2022-07-21T13:36:12;7.80;;;2.88;;
23250;SDS011;11794;49.730;10.088;2022-07-21T13:38:38;5.15;;;2.40;;
23250;SDS011;11794;49.730;10.088;2022-07-21T13:41:03;5.57;;;2.60;;
23250;SDS011;11794;49.730;10.088;2022-07-21T13:43:29;6.53;;;2.60;;
23250;SDS011;11794;49.730;10.088;2022-07-21T13:45:55;6.53;;;2.80;;
23250;SDS011;11794;49.730;10.088;2022-07-21T13:48:21;5.60;;;2.90;;
23250;SDS011;11794;49.730;10.088;2022-07-21T13:50:47;6.03;;;3.00;;
23250;SDS011;11794;49.730;10.088;2022-07-21T13:53:12;5.32;;;2.60;;
23250;SDS011;11794;49.730;10.088;2022-07-21T13:55:38;6.30;;;3.00;;
23250;SDS011;11794;49.730;10.088;2022-07-21T13:58:03;5.97;;;3.33;;
23250;SDS011;11794;49.730;10.088;2022-07-21T14:00:31;5.60;;;2.80;;
23250;SDS011;11794;49.730;10.088;2022-07-21T14:02:57;5.60;;;3.10;;
23250;SDS011;11794;49.730;10.088;2022-07-21T14:05:23;5.95;;;3.33;;
23250;SDS011;11794;49.730;10.088;2022-07-21T14:07:48;5.53;;;3.20;;
23250;SDS011;11794;49.730;10.088;2022-07-21T14:10:14;7.00;;;3.57;;
23250;SDS011;11794;49.730;10.088;2022-07-21T14:12:39;6.10;;;3.20;;
23250;SDS011;11794;49.730;10.088;2022-07-21T14:15:05;6.20;;;3.30;;
23250;SDS011;11794;49.730;10.088;2022-07-21T14:17:31;7.97;;;3.20;;
23250;SDS011;11794;49.730;10.088;2022-07-21T14:19:56;6.13;;;3.17;;
23250;SDS011;11794;49.730;10.088;2022-07-21T14:22:22;7.23;;;3.20;;
23250;SDS011;11794;49.730;10.088;2022-07-21T14:24:48;6.00;;;3.10;;
23250;SDS011;11794;49.730;10.088;2022-07-21T14:27:32;6.90;;;3.22;;
23250;SDS011;11794;49.730;10.088;2022-07-21T14:29:58;7.35;;;3.35;;
23250;SDS011;11794;49.730;10.088;2022-07-21T14:32:24;7.35;;;3.25;;
23250;SDS011;11794;49.730;10.088;2022-07-21T14:34:50;8.20;;;3.30;;
23250;SDS011;11794;49.730;10.088;2022-07-21T14:37:19;7.03;;;3.42;;
23250;SDS011;11794;49.730;10.088;2022-07-21T14:39:45;6.25;;;3.30;;
23250;SDS011;11794;49.730;10.088;2022-07-21T14:42:12;6.85;;;3.30;;
23250;SDS011;11794;49.730;10.088;2022-07-21T14:44:37;6.30;;;3.30;;
23250;SDS011;11794;49.730;10.088;2022-07-21T14:47:04;6.60;;;3.10;;
23250;SDS011;11794;49.730;10.088;2022-07-21T14:49:30;6.60;;;3.15;;
23250;SDS011;11794;49.730;10.088;2022-07-21T14:51:55;6.17;;;3.00;;
23250;SDS011;11794;49.730;10.088;2022-07-21T14:54:21;6.57;;;2.90;;
23250;SDS011;11794;49.730;10.088;2022-07-21T14:56:46;7.07;;;3.30;;
23250;SDS011;11794;49.730;10.088;2022-07-21T14:59:12;7.60;;;3.40;;
23250;SDS011;11794;49.730;10.088;2022-07-21T15:01:37;7.87;;;3.80;;
23250;SDS011;11794;49.730;10.088;2022-07-21T15:04:03;6.28;;;3.40;;
23250;SDS011;11794;49.730;10.088;2022-07-21T15:06:28;6.57;;;3.67;;
23250;SDS011;11794;49.730;10.088;2022-07-21T15:08:54;6.93;;;3.58;;